sensor_id;sensor_type;location;lat;lon;timestamp;temperature;humidity
37642;DHT22;23486;51.956;5.888;2023-05-29T00:00:47;11.80;99.90
37642;DHT22;23486;51.956;5.888;2023-05-29T00:03:15;11.70;99.90
37642;DHT22;23486;51.956;5.888;2023-05-29T00:05:42;11.70;99.90
37642;DHT22;23486;51.956;5.888;2023-05-29T00:08:08;11.60;99.90
37642;DHT22;23486;51.956;5.888;2023-05-29T00:10:34;11.70;99.90
37642;DHT22;23486;51.956;5.888;2023-05-29T00:13:00;11.60;99.90
37642;DHT22;23486;51.956;5.888;2023-05-29T00:15:27;11.60;99.90
37642;DHT22;23486;51.956;5.888;2023-05-29T00:17:52;11.60;99.90
37642;DHT22;23486;51.956;5.888;2023-05-29T00:20:18;11.60;99.90
37642;DHT22;23486;51.956;5.888;2023-05-29T00:22:44;11.60;99.90
37642;DHT22;23486;51.956;5.888;2023-05-29T00:25:09;11.60;99.90
37642;DHT22;23486;51.956;5.888;2023-05-29T00:27:35;11.40;99.90
37642;DHT22;23486;51.956;5.888;2023-05-29T00:30:01;11.50;99.90
37642;DHT22;23486;51.956;5.888;2023-05-29T00:32:28;11.40;99.90
37642;DHT22;23486;51.956;5.888;2023-05-29T00:34:54;11.40;99.90
37642;DHT22;23486;51.956;5.888;2023-05-29T00:37:21;11.40;99.90
37642;DHT22;23486;51.956;5.888;2023-05-29T00:39:50;11.40;99.90
37642;DHT22;23486;51.956;5.888;2023-05-29T00:42:15;11.40;99.90
37642;DHT22;23486;51.956;5.888;2023-05-29T00:44:41;11.20;99.90
37642;DHT22;23486;51.956;5.888;2023-05-29T00:47:07;11.20;99.90
37642;DHT22;23486;51.956;5.888;2023-05-29T00:49:35;11.20;99.90
37642;DHT22;23486;51.956;5.888;2023-05-29T00:52:01;11.20;99.90
37642;DHT22;23486;51.956;5.888;2023-05-29T00:54:29;11.20;99.90
37642;DHT22;23486;51.956;5.888;2023-05-29T00:56:57;11.20;99.90
37642;DHT22;23486;51.956;5.888;2023-05-29T00:59:22;11.20;99.90
37642;DHT22;23486;51.956;5.888;2023-05-29T01:01:49;11.20;99.90
37642;DHT22;23486;51.956;5.888;2023-05-29T01:04:16;11.10;99.90
37642;DHT22;23486;51.956;5.888;2023-05-29T01:06:43;11.10;99.90
37642;DHT22;23486;51.956;5.888;2023-05-29T01:09:11;11.00;99.90
37642;DHT22;23486;51.956;5.888;2023-05-29T01:17:42;10.90;99.90
37642;DHT22;23486;51.956;5.888;2023-05-29T01:20:27;10.90;99.90
37642;DHT22;23486;51.956;5.888;2023-05-29T01:28:42;10.80;99.90
37642;DHT22;23486;51.956;5.888;2023-05-29T01:31:14;10.80;99.90
37642;DHT22;23486;51.956;5.888;2023-05-29T01:33:42;10.80;99.90
37642;DHT22;23486;51.956;5.888;2023-05-29T01:36:16;10.80;99.90
37642;DHT22;23486;51.956;5.888;2023-05-29T01:38:42;10.70;99.90
37642;DHT22;23486;51.956;5.888;2023-05-29T01:41:07;10.70;99.90
37642;DHT22;23486;51.956;5.888;2023-05-29T01:43:33;10.70;99.90
37642;DHT22;23486;51.956;5.888;2023-05-29T01:45:59;10.60;99.90
37642;DHT22;23486;51.956;5.888;2023-05-29T01:48:25;10.50;99.90
37642;DHT22;23486;51.956;5.888;2023-05-29T01:50:51;10.60;99.90
37642;DHT22;23486;51.956;5.888;2023-05-29T01:53:17;10.50;99.90
37642;DHT22;23486;51.956;5.888;2023-05-29T01:55:43;10.50;99.90
37642;DHT22;23486;51.956;5.888;2023-05-29T01:58:08;10.50;99.90
37642;DHT22;23486;51.956;5.888;2023-05-29T02:00:35;10.40;99.90
37642;DHT22;23486;51.956;5.888;2023-05-29T02:03:01;10.50;99.90
37642;DHT22;23486;51.956;5.888;2023-05-29T02:05:27;10.50;99.90
37642;DHT22;23486;51.956;5.888;2023-05-29T02:07:53;10.40;99.90
37642;DHT22;23486;51.956;5.888;2023-05-29T02:10:18;10.40;99.90
37642;DHT22;23486;51.956;5.888;2023-05-29T02:12:44;10.30;99.90
37642;DHT22;23486;51.956;5.888;2023-05-29T02:15:10;10.30;99.90
37642;DHT22;23486;51.956;5.888;2023-05-29T02:17:38;10.30;99.90
37642;DHT22;23486;51.956;5.888;2023-05-29T02:20:04;10.30;99.90
37642;DHT22;23486;51.956;5.888;2023-05-29T02:22:30;10.30;99.90
37642;DHT22;23486;51.956;5.888;2023-05-29T02:24:56;10.30;99.90
37642;DHT22;23486;51.956;5.888;2023-05-29T02:27:21;10.20;99.90
37642;DHT22;23486;51.956;5.888;2023-05-29T02:29:47;10.20;99.90
37642;DHT22;23486;51.956;5.888;2023-05-29T02:32:12;10.20;99.90
37642;DHT22;23486;51.956;5.888;2023-05-29T02:34:38;10.10;99.90
37642;DHT22;23486;51.956;5.888;2023-05-29T02:37:04;10.20;99.90
37642;DHT22;23486;51.956;5.888;2023-05-29T02:39:29;10.10;99.90
37642;DHT22;23486;51.956;5.888;2023-05-29T02:41:55;10.10;99.90
37642;DHT22;23486;51.956;5.888;2023-05-29T02:44:20;10.00;99.90
37642;DHT22;23486;51.956;5.888;2023-05-29T02:46:46;10.10;99.90
37642;DHT22;23486;51.956;5.888;2023-05-29T02:49:12;10.00;99.90
37642;DHT22;23486;51.956;5.888;2023-05-29T02:51:37;10.00;99.90
37642;DHT22;23486;51.956;5.888;2023-05-29T02:54:03;10.00;99.90
37642;DHT22;23486;51.956;5.888;2023-05-29T02:56:28;10.00;99.90
37642;DHT22;23486;51.956;5.888;2023-05-29T02:58:54;10.00;99.90
37642;DHT22;23486;51.956;5.888;2023-05-29T03:01:20;9.90;99.90
37642;DHT22;23486;51.956;5.888;2023-05-29T03:03:45;9.90;99.90
37642;DHT22;23486;51.956;5.888;2023-05-29T03:06:11;10.00;99.90
37642;DHT22;23486;51.956;5.888;2023-05-29T03:08:38;9.90;99.90
37642;DHT22;23486;51.956;5.888;2023-05-29T03:11:09;9.90;99.90
37642;DHT22;23486;51.956;5.888;2023-05-29T03:13:39;9.90;99.90
37642;DHT22;23486;51.956;5.888;2023-05-29T03:16:05;9.90;99.90
37642;DHT22;23486;51.956;5.888;2023-05-29T03:18:33;9.80;99.90
37642;DHT22;23486;51.956;5.888;2023-05-29T03:20:59;9.80;99.90
37642;DHT22;23486;51.956;5.888;2023-05-29T03:23:27;9.80;99.90
37642;DHT22;23486;51.956;5.888;2023-05-29T03:25:53;9.70;99.90
37642;DHT22;23486;51.956;5.888;2023-05-29T03:28:18;9.70;99.90
37642;DHT22;23486;51.956;5.888;2023-05-29T03:30:44;9.60;99.90
37642;DHT22;23486;51.956;5.888;2023-05-29T03:33:09;9.60;99.90
37642;DHT22;23486;51.956;5.888;2023-05-29T03:35:35;9.60;99.90
37642;DHT22;23486;51.956;5.888;2023-05-29T03:38:01;9.50;99.90
37642;DHT22;23486;51.956;5.888;2023-05-29T03:40:26;9.50;99.90
37642;DHT22;23486;51.956;5.888;2023-05-29T03:42:52;9.50;99.90
37642;DHT22;23486;51.956;5.888;2023-05-29T03:45:17;9.50;99.90
37642;DHT22;23486;51.956;5.888;2023-05-29T03:47:43;9.50;99.90
37642;DHT22;23486;51.956;5.888;2023-05-29T03:50:09;9.50;99.90
37642;DHT22;23486;51.956;5.888;2023-05-29T03:52:34;9.50;99.90
37642;DHT22;23486;51.956;5.888;2023-05-29T03:55:03;9.60;99.90
37642;DHT22;23486;51.956;5.888;2023-05-29T03:57:28;9.50;99.90
37642;DHT22;23486;51.956;5.888;2023-05-29T03:59:54;9.50;99.90
37642;DHT22;23486;51.956;5.888;2023-05-29T04:02:20;9.60;99.90
37642;DHT22;23486;51.956;5.888;2023-05-29T04:04:45;9.60;99.90
37642;DHT22;23486;51.956;5.888;2023-05-29T04:07:11;9.60;99.90
37642;DHT22;23486;51.956;5.888;2023-05-29T04:09:36;9.60;99.90
37642;DHT22;23486;51.956;5.888;2023-05-29T04:12:03;9.60;99.90
37642;DHT22;23486;51.956;5.888;2023-05-29T04:14:31;9.70;99.90
37642;DHT22;23486;51.956;5.888;2023-05-29T04:16:56;9.70;99.90
37642;DHT22;23486;51.956;5.888;2023-05-29T04:19:22;9.80;99.90
37642;DHT22;23486;51.956;5.888;2023-05-29T04:21:48;9.80;99.90
37642;DHT22;23486;51.956;5.888;2023-05-29T04:24:14;9.70;99.90
37642;DHT22;23486;51.956;5.888;2023-05-29T04:26:40;9.80;99.90
37642;DHT22;23486;51.956;5.888;2023-05-29T04:29:09;9.80;99.90
37642;DHT22;23486;51.956;5.888;2023-05-29T04:31:38;9.80;99.90
37642;DHT22;23486;51.956;5.888;2023-05-29T04:34:06;9.90;99.90
37642;DHT22;23486;51.956;5.888;2023-05-29T04:36:33;9.90;99.90
37642;DHT22;23486;51.956;5.888;2023-05-29T04:39:04;9.80;99.90
37642;DHT22;23486;51.956;5.888;2023-05-29T04:41:30;9.80;99.90
37642;DHT22;23486;51.956;5.888;2023-05-29T04:43:56;9.80;99.90
37642;DHT22;23486;51.956;5.888;2023-05-29T04:46:25;9.80;99.90
37642;DHT22;23486;51.956;5.888;2023-05-29T04:48:54;9.80;99.90
37642;DHT22;23486;51.956;5.888;2023-05-29T04:51:22;9.90;99.90
37642;DHT22;23486;51.956;5.888;2023-05-29T04:53:51;9.90;99.90
37642;DHT22;23486;51.956;5.888;2023-05-29T04:56:19;9.90;99.90
37642;DHT22;23486;51.956;5.888;2023-05-29T04:58:45;9.90;99.90
37642;DHT22;23486;51.956;5.888;2023-05-29T05:01:11;9.90;99.90
37642;DHT22;23486;51.956;5.888;2023-05-29T05:03:40;10.00;99.90
37642;DHT22;23486;51.956;5.888;2023-05-29T05:06:06;10.00;99.90
37642;DHT22;23486;51.956;5.888;2023-05-29T05:08:35;10.00;99.90
37642;DHT22;23486;51.956;5.888;2023-05-29T05:11:01;10.10;99.90
37642;DHT22;23486;51.956;5.888;2023-05-29T05:13:27;10.10;99.90
37642;DHT22;23486;51.956;5.888;2023-05-29T05:15:53;10.10;99.90
37642;DHT22;23486;51.956;5.888;2023-05-29T05:18:19;10.10;99.90
37642;DHT22;23486;51.956;5.888;2023-05-29T05:20:45;10.20;99.90
37642;DHT22;23486;51.956;5.888;2023-05-29T05:23:11;10.20;99.90
37642;DHT22;23486;51.956;5.888;2023-05-29T05:25:37;10.10;99.90
37642;DHT22;23486;51.956;5.888;2023-05-29T05:28:04;10.30;99.90
37642;DHT22;23486;51.956;5.888;2023-05-29T05:30:30;10.30;99.90
37642;DHT22;23486;51.956;5.888;2023-05-29T05:32:59;10.30;99.90
37642;DHT22;23486;51.956;5.888;2023-05-29T05:35:25;10.40;99.90
37642;DHT22;23486;51.956;5.888;2023-05-29T05:37:50;10.40;99.90
37642;DHT22;23486;51.956;5.888;2023-05-29T05:40:22;10.50;99.90
37642;DHT22;23486;51.956;5.888;2023-05-29T05:42:47;10.50;99.90
37642;DHT22;23486;51.956;5.888;2023-05-29T05:45:13;10.60;99.90
37642;DHT22;23486;51.956;5.888;2023-05-29T05:47:38;10.60;99.90
37642;DHT22;23486;51.956;5.888;2023-05-29T05:50:05;10.60;99.90
37642;DHT22;23486;51.956;5.888;2023-05-29T05:52:31;10.70;99.90
37642;DHT22;23486;51.956;5.888;2023-05-29T05:54:58;10.70;99.90
37642;DHT22;23486;51.956;5.888;2023-05-29T05:57:23;10.70;99.90
37642;DHT22;23486;51.956;5.888;2023-05-29T05:59:49;10.80;99.90
37642;DHT22;23486;51.956;5.888;2023-05-29T06:02:14;10.80;99.90
37642;DHT22;23486;51.956;5.888;2023-05-29T06:04:40;10.90;99.90
37642;DHT22;23486;51.956;5.888;2023-05-29T06:07:07;10.90;99.90
37642;DHT22;23486;51.956;5.888;2023-05-29T06:09:32;10.90;99.90
37642;DHT22;23486;51.956;5.888;2023-05-29T06:11:58;10.90;99.90
37642;DHT22;23486;51.956;5.888;2023-05-29T06:14:24;11.00;99.90
37642;DHT22;23486;51.956;5.888;2023-05-29T06:16:50;11.10;99.90
37642;DHT22;23486;51.956;5.888;2023-05-29T06:19:16;11.20;99.90
37642;DHT22;23486;51.956;5.888;2023-05-29T06:21:41;11.20;99.90
37642;DHT22;23486;51.956;5.888;2023-05-29T06:24:07;11.30;99.90
37642;DHT22;23486;51.956;5.888;2023-05-29T06:26:33;11.40;99.90
37642;DHT22;23486;51.956;5.888;2023-05-29T06:28:59;11.40;99.90
37642;DHT22;23486;51.956;5.888;2023-05-29T06:31:24;11.50;99.90
37642;DHT22;23486;51.956;5.888;2023-05-29T06:33:51;11.50;99.90
37642;DHT22;23486;51.956;5.888;2023-05-29T06:36:16;11.60;99.90
37642;DHT22;23486;51.956;5.888;2023-05-29T06:38:48;11.70;99.90
37642;DHT22;23486;51.956;5.888;2023-05-29T06:41:13;11.70;99.90
37642;DHT22;23486;51.956;5.888;2023-05-29T06:43:39;11.80;99.90
37642;DHT22;23486;51.956;5.888;2023-05-29T06:46:05;11.80;99.90
37642;DHT22;23486;51.956;5.888;2023-05-29T06:48:34;11.90;99.90
37642;DHT22;23486;51.956;5.888;2023-05-29T06:51:02;11.90;99.90
37642;DHT22;23486;51.956;5.888;2023-05-29T06:53:40;12.00;99.90
37642;DHT22;23486;51.956;5.888;2023-05-29T06:56:06;12.10;99.90
37642;DHT22;23486;51.956;5.888;2023-05-29T06:58:32;12.20;99.90
37642;DHT22;23486;51.956;5.888;2023-05-29T07:00:58;12.30;99.90
37642;DHT22;23486;51.956;5.888;2023-05-29T07:03:25;12.30;99.90
37642;DHT22;23486;51.956;5.888;2023-05-29T07:05:51;12.40;99.90
37642;DHT22;23486;51.956;5.888;2023-05-29T07:08:16;12.30;99.90
37642;DHT22;23486;51.956;5.888;2023-05-29T07:10:45;12.40;99.90
37642;DHT22;23486;51.956;5.888;2023-05-29T07:13:15;12.50;99.90
37642;DHT22;23486;51.956;5.888;2023-05-29T07:15:42;12.60;99.90
37642;DHT22;23486;51.956;5.888;2023-05-29T07:18:07;12.60;99.90
37642;DHT22;23486;51.956;5.888;2023-05-29T07:20:33;12.60;99.90
37642;DHT22;23486;51.956;5.888;2023-05-29T07:22:58;12.70;99.90
37642;DHT22;23486;51.956;5.888;2023-05-29T07:25:30;12.80;99.90
37642;DHT22;23486;51.956;5.888;2023-05-29T07:27:56;12.80;99.90
37642;DHT22;23486;51.956;5.888;2023-05-29T07:30:22;12.80;99.90
37642;DHT22;23486;51.956;5.888;2023-05-29T07:32:47;12.90;99.90
37642;DHT22;23486;51.956;5.888;2023-05-29T07:35:13;13.00;99.90
37642;DHT22;23486;51.956;5.888;2023-05-29T07:37:38;13.00;99.90
37642;DHT22;23486;51.956;5.888;2023-05-29T07:40:04;13.10;99.90
37642;DHT22;23486;51.956;5.888;2023-05-29T07:42:33;13.10;99.70
37642;DHT22;23486;51.956;5.888;2023-05-29T07:44:59;13.20;99.70
37642;DHT22;23486;51.956;5.888;2023-05-29T07:47:25;13.20;99.40
37642;DHT22;23486;51.956;5.888;2023-05-29T07:49:54;13.20;99.20
37642;DHT22;23486;51.956;5.888;2023-05-29T07:52:19;13.20;98.90
37642;DHT22;23486;51.956;5.888;2023-05-29T07:54:45;13.30;98.70
37642;DHT22;23486;51.956;5.888;2023-05-29T07:57:11;13.20;98.60
37642;DHT22;23486;51.956;5.888;2023-05-29T07:59:37;13.20;98.60
37642;DHT22;23486;51.956;5.888;2023-05-29T08:02:05;13.30;98.60
37642;DHT22;23486;51.956;5.888;2023-05-29T08:04:31;13.30;98.60
37642;DHT22;23486;51.956;5.888;2023-05-29T08:06:58;13.40;98.50
37642;DHT22;23486;51.956;5.888;2023-05-29T08:09:24;13.60;98.70
37642;DHT22;23486;51.956;5.888;2023-05-29T08:11:50;13.70;98.60
37642;DHT22;23486;51.956;5.888;2023-05-29T08:14:18;13.80;98.40
37642;DHT22;23486;51.956;5.888;2023-05-29T08:16:44;13.80;97.70
37642;DHT22;23486;51.956;5.888;2023-05-29T08:19:09;13.80;97.30
37642;DHT22;23486;51.956;5.888;2023-05-29T08:21:35;13.80;97.40
37642;DHT22;23486;51.956;5.888;2023-05-29T08:24:02;13.70;97.20
37642;DHT22;23486;51.956;5.888;2023-05-29T08:26:30;13.70;97.40
37642;DHT22;23486;51.956;5.888;2023-05-29T08:28:55;13.90;97.60
37642;DHT22;23486;51.956;5.888;2023-05-29T08:31:21;14.00;97.60
37642;DHT22;23486;51.956;5.888;2023-05-29T08:33:49;14.10;97.50
37642;DHT22;23486;51.956;5.888;2023-05-29T08:36:18;14.30;97.30
37642;DHT22;23486;51.956;5.888;2023-05-29T08:38:46;14.30;97.00
37642;DHT22;23486;51.956;5.888;2023-05-29T08:41:21;14.40;97.20
37642;DHT22;23486;51.956;5.888;2023-05-29T08:43:48;14.50;96.90
37642;DHT22;23486;51.956;5.888;2023-05-29T08:46:17;14.60;96.40
37642;DHT22;23486;51.956;5.888;2023-05-29T08:48:48;14.60;96.00
37642;DHT22;23486;51.956;5.888;2023-05-29T08:51:21;14.70;96.00
37642;DHT22;23486;51.956;5.888;2023-05-29T08:53:49;14.60;95.40
37642;DHT22;23486;51.956;5.888;2023-05-29T08:56:15;14.60;95.00
37642;DHT22;23486;51.956;5.888;2023-05-29T08:58:41;14.70;95.20
37642;DHT22;23486;51.956;5.888;2023-05-29T09:01:08;14.80;95.30
37642;DHT22;23486;51.956;5.888;2023-05-29T09:03:34;14.90;95.00
37642;DHT22;23486;51.956;5.888;2023-05-29T09:06:00;15.00;95.00
37642;DHT22;23486;51.956;5.888;2023-05-29T09:08:26;15.10;94.20
37642;DHT22;23486;51.956;5.888;2023-05-29T09:10:53;15.10;94.10
37642;DHT22;23486;51.956;5.888;2023-05-29T09:13:20;15.20;94.30
37642;DHT22;23486;51.956;5.888;2023-05-29T09:15:46;15.20;93.90
37642;DHT22;23486;51.956;5.888;2023-05-29T09:18:12;15.30;93.90
37642;DHT22;23486;51.956;5.888;2023-05-29T09:20:37;15.30;92.80
37642;DHT22;23486;51.956;5.888;2023-05-29T09:23:05;15.30;92.60
37642;DHT22;23486;51.956;5.888;2023-05-29T09:25:33;15.20;92.70
37642;DHT22;23486;51.956;5.888;2023-05-29T09:28:04;15.30;92.90
37642;DHT22;23486;51.956;5.888;2023-05-29T09:30:46;15.40;92.50
37642;DHT22;23486;51.956;5.888;2023-05-29T09:33:13;15.40;92.50
37642;DHT22;23486;51.956;5.888;2023-05-29T09:35:41;15.40;92.60
37642;DHT22;23486;51.956;5.888;2023-05-29T09:38:08;15.50;92.90
37642;DHT22;23486;51.956;5.888;2023-05-29T09:40:36;15.70;93.00
37642;DHT22;23486;51.956;5.888;2023-05-29T09:43:03;15.90;93.10
37642;DHT22;23486;51.956;5.888;2023-05-29T09:45:33;16.00;93.20
37642;DHT22;23486;51.956;5.888;2023-05-29T09:47:58;16.10;92.80
37642;DHT22;23486;51.956;5.888;2023-05-29T09:50:27;16.20;92.80
37642;DHT22;23486;51.956;5.888;2023-05-29T09:52:55;16.20;92.20
37642;DHT22;23486;51.956;5.888;2023-05-29T09:55:23;16.20;92.30
37642;DHT22;23486;51.956;5.888;2023-05-29T09:57:49;16.20;92.20
37642;DHT22;23486;51.956;5.888;2023-05-29T10:00:16;16.20;91.60
37642;DHT22;23486;51.956;5.888;2023-05-29T10:02:42;16.20;91.80
37642;DHT22;23486;51.956;5.888;2023-05-29T10:05:11;16.20;91.90
37642;DHT22;23486;51.956;5.888;2023-05-29T10:07:44;16.40;92.20
37642;DHT22;23486;51.956;5.888;2023-05-29T10:10:12;16.50;92.20
37642;DHT22;23486;51.956;5.888;2023-05-29T10:12:44;16.60;91.70
37642;DHT22;23486;51.956;5.888;2023-05-29T10:15:12;16.50;91.20
37642;DHT22;23486;51.956;5.888;2023-05-29T10:17:44;16.40;91.30
37642;DHT22;23486;51.956;5.888;2023-05-29T10:20:14;16.40;91.60
37642;DHT22;23486;51.956;5.888;2023-05-29T10:22:45;16.40;91.50
37642;DHT22;23486;51.956;5.888;2023-05-29T10:25:13;16.50;91.50
37642;DHT22;23486;51.956;5.888;2023-05-29T10:27:43;16.50;90.90
37642;DHT22;23486;51.956;5.888;2023-05-29T10:32:52;16.60;90.80
37642;DHT22;23486;51.956;5.888;2023-05-29T10:35:28;16.80;90.80
37642;DHT22;23486;51.956;5.888;2023-05-29T10:38:12;17.00;91.00
37642;DHT22;23486;51.956;5.888;2023-05-29T10:40:44;17.30;90.60
37642;DHT22;23486;51.956;5.888;2023-05-29T10:43:33;17.50;90.50
37642;DHT22;23486;51.956;5.888;2023-05-29T10:46:00;17.70;87.90
37642;DHT22;23486;51.956;5.888;2023-05-29T10:50:55;17.50;85.60
37642;DHT22;23486;51.956;5.888;2023-05-29T10:53:32;17.50;86.60
37642;DHT22;23486;51.956;5.888;2023-05-29T10:55:59;17.50;84.80
37642;DHT22;23486;51.956;5.888;2023-05-29T10:58:26;17.50;86.00
37642;DHT22;23486;51.956;5.888;2023-05-29T11:00:53;17.80;85.80
37642;DHT22;23486;51.956;5.888;2023-05-29T11:03:31;17.80;82.30
37642;DHT22;23486;51.956;5.888;2023-05-29T11:08:32;17.80;81.30
37642;DHT22;23486;51.956;5.888;2023-05-29T11:10:58;17.90;81.90
37642;DHT22;23486;51.956;5.888;2023-05-29T11:13:38;17.90;80.70
37642;DHT22;23486;51.956;5.888;2023-05-29T11:18:51;18.00;81.10
37642;DHT22;23486;51.956;5.888;2023-05-29T11:24:02;18.30;80.00
37642;DHT22;23486;51.956;5.888;2023-05-29T11:26:29;18.30;79.00
37642;DHT22;23486;51.956;5.888;2023-05-29T11:29:03;18.20;79.60
37642;DHT22;23486;51.956;5.888;2023-05-29T11:31:37;18.30;78.40
37642;DHT22;23486;51.956;5.888;2023-05-29T11:34:04;18.10;77.30
37642;DHT22;23486;51.956;5.888;2023-05-29T11:36:32;18.10;77.10
37642;DHT22;23486;51.956;5.888;2023-05-29T11:38:59;18.00;75.60
37642;DHT22;23486;51.956;5.888;2023-05-29T11:41:25;18.10;76.00
37642;DHT22;23486;51.956;5.888;2023-05-29T11:44:00;18.20;75.80
37642;DHT22;23486;51.956;5.888;2023-05-29T11:46:31;18.30;76.60
37642;DHT22;23486;51.956;5.888;2023-05-29T11:48:58;18.30;75.40
37642;DHT22;23486;51.956;5.888;2023-05-29T11:51:25;18.40;75.60
37642;DHT22;23486;51.956;5.888;2023-05-29T11:53:51;18.50;75.50
37642;DHT22;23486;51.956;5.888;2023-05-29T11:56:23;18.60;75.50
37642;DHT22;23486;51.956;5.888;2023-05-29T11:58:50;18.80;75.70
37642;DHT22;23486;51.956;5.888;2023-05-29T12:01:17;18.90;74.50
37642;DHT22;23486;51.956;5.888;2023-05-29T12:03:44;18.80;74.20
37642;DHT22;23486;51.956;5.888;2023-05-29T12:06:10;18.80;74.20
37642;DHT22;23486;51.956;5.888;2023-05-29T12:08:37;18.80;74.60
37642;DHT22;23486;51.956;5.888;2023-05-29T12:11:05;18.80;74.30
37642;DHT22;23486;51.956;5.888;2023-05-29T12:13:34;18.90;74.50
37642;DHT22;23486;51.956;5.888;2023-05-29T12:16:01;19.00;73.40
37642;DHT22;23486;51.956;5.888;2023-05-29T12:18:29;19.20;73.50
37642;DHT22;23486;51.956;5.888;2023-05-29T12:21:02;19.30;72.80
37642;DHT22;23486;51.956;5.888;2023-05-29T12:23:31;19.40;73.40
37642;DHT22;23486;51.956;5.888;2023-05-29T12:25:57;19.70;73.40
37642;DHT22;23486;51.956;5.888;2023-05-29T12:28:25;19.70;71.30
37642;DHT22;23486;51.956;5.888;2023-05-29T12:30:50;19.50;71.40
37642;DHT22;23486;51.956;5.888;2023-05-29T12:33:27;19.50;71.40
37642;DHT22;23486;51.956;5.888;2023-05-29T12:35:53;19.50;71.10
37642;DHT22;23486;51.956;5.888;2023-05-29T12:38:19;19.60;70.20
37642;DHT22;23486;51.956;5.888;2023-05-29T12:40:48;19.50;69.70
37642;DHT22;23486;51.956;5.888;2023-05-29T12:43:14;19.40;68.10
37642;DHT22;23486;51.956;5.888;2023-05-29T12:45:39;19.30;68.90
37642;DHT22;23486;51.956;5.888;2023-05-29T12:48:06;19.30;69.20
37642;DHT22;23486;51.956;5.888;2023-05-29T12:50:34;19.30;68.30
37642;DHT22;23486;51.956;5.888;2023-05-29T12:55:35;19.30;68.60
37642;DHT22;23486;51.956;5.888;2023-05-29T12:58:14;19.40;68.70
37642;DHT22;23486;51.956;5.888;2023-05-29T13:00:42;19.30;68.10
37642;DHT22;23486;51.956;5.888;2023-05-29T13:03:08;19.30;68.10
37642;DHT22;23486;51.956;5.888;2023-05-29T13:05:34;19.30;68.10
37642;DHT22;23486;51.956;5.888;2023-05-29T13:08:00;19.30;68.30
37642;DHT22;23486;51.956;5.888;2023-05-29T13:10:27;19.20;67.80
37642;DHT22;23486;51.956;5.888;2023-05-29T13:12:54;19.30;68.00
37642;DHT22;23486;51.956;5.888;2023-05-29T13:15:22;19.30;67.50
37642;DHT22;23486;51.956;5.888;2023-05-29T13:17:48;19.40;67.70
37642;DHT22;23486;51.956;5.888;2023-05-29T13:20:14;19.50;67.80
37642;DHT22;23486;51.956;5.888;2023-05-29T13:22:41;19.70;67.90
37642;DHT22;23486;51.956;5.888;2023-05-29T13:25:08;19.80;66.90
37642;DHT22;23486;51.956;5.888;2023-05-29T13:27:38;19.90;66.70
37642;DHT22;23486;51.956;5.888;2023-05-29T13:30:05;20.00;65.80
37642;DHT22;23486;51.956;5.888;2023-05-29T13:32:31;20.10;65.40
37642;DHT22;23486;51.956;5.888;2023-05-29T13:34:56;20.20;64.80
37642;DHT22;23486;51.956;5.888;2023-05-29T13:37:23;20.20;64.70
37642;DHT22;23486;51.956;5.888;2023-05-29T13:39:48;20.20;63.40
37642;DHT22;23486;51.956;5.888;2023-05-29T13:42:14;20.10;63.20
37642;DHT22;23486;51.956;5.888;2023-05-29T13:44:40;20.10;64.40
37642;DHT22;23486;51.956;5.888;2023-05-29T13:47:06;20.40;64.60
37642;DHT22;23486;51.956;5.888;2023-05-29T13:49:33;20.40;63.50
37642;DHT22;23486;51.956;5.888;2023-05-29T13:51:58;20.50;63.40
37642;DHT22;23486;51.956;5.888;2023-05-29T13:54:24;20.40;62.30
37642;DHT22;23486;51.956;5.888;2023-05-29T13:56:49;20.40;61.70
37642;DHT22;23486;51.956;5.888;2023-05-29T13:59:15;20.40;61.30
37642;DHT22;23486;51.956;5.888;2023-05-29T14:01:44;20.40;60.40
37642;DHT22;23486;51.956;5.888;2023-05-29T14:04:10;20.40;61.00
37642;DHT22;23486;51.956;5.888;2023-05-29T14:06:36;20.40;59.40
37642;DHT22;23486;51.956;5.888;2023-05-29T14:09:02;20.50;60.00
37642;DHT22;23486;51.956;5.888;2023-05-29T14:11:28;20.80;59.60
37642;DHT22;23486;51.956;5.888;2023-05-29T14:13:54;21.10;60.50
37642;DHT22;23486;51.956;5.888;2023-05-29T14:16:20;21.10;60.20
37642;DHT22;23486;51.956;5.888;2023-05-29T14:18:45;21.10;59.70
37642;DHT22;23486;51.956;5.888;2023-05-29T14:21:13;21.10;60.40
37642;DHT22;23486;51.956;5.888;2023-05-29T14:23:39;21.10;59.60
37642;DHT22;23486;51.956;5.888;2023-05-29T14:26:05;21.20;60.40
37642;DHT22;23486;51.956;5.888;2023-05-29T14:28:30;21.20;56.90
37642;DHT22;23486;51.956;5.888;2023-05-29T14:30:56;21.00;56.80
37642;DHT22;23486;51.956;5.888;2023-05-29T14:33:21;21.20;57.90
37642;DHT22;23486;51.956;5.888;2023-05-29T14:35:47;21.50;58.30
37642;DHT22;23486;51.956;5.888;2023-05-29T14:38:12;21.70;57.60
37642;DHT22;23486;51.956;5.888;2023-05-29T14:40:38;21.80;57.20
37642;DHT22;23486;51.956;5.888;2023-05-29T14:43:04;21.80;55.90
37642;DHT22;23486;51.956;5.888;2023-05-29T14:45:30;21.80;56.50
37642;DHT22;23486;51.956;5.888;2023-05-29T14:47:55;21.90;56.30
37642;DHT22;23486;51.956;5.888;2023-05-29T14:50:21;21.80;55.20
37642;DHT22;23486;51.956;5.888;2023-05-29T14:52:46;21.60;55.30
37642;DHT22;23486;51.956;5.888;2023-05-29T14:55:13;21.50;55.70
37642;DHT22;23486;51.956;5.888;2023-05-29T14:57:40;21.40;55.90
37642;DHT22;23486;51.956;5.888;2023-05-29T15:00:07;21.40;56.60
37642;DHT22;23486;51.956;5.888;2023-05-29T15:02:36;21.40;56.80
37642;DHT22;23486;51.956;5.888;2023-05-29T15:05:01;21.50;57.60
37642;DHT22;23486;51.956;5.888;2023-05-29T15:07:27;21.50;57.90
37642;DHT22;23486;51.956;5.888;2023-05-29T15:09:52;21.60;57.40
37642;DHT22;23486;51.956;5.888;2023-05-29T15:12:18;21.60;57.20
37642;DHT22;23486;51.956;5.888;2023-05-29T15:14:44;21.50;56.70
37642;DHT22;23486;51.956;5.888;2023-05-29T15:17:09;21.60;56.20
37642;DHT22;23486;51.956;5.888;2023-05-29T15:19:35;21.70;57.10
37642;DHT22;23486;51.956;5.888;2023-05-29T15:22:00;21.80;55.00
37642;DHT22;23486;51.956;5.888;2023-05-29T15:24:26;21.70;54.80
37642;DHT22;23486;51.956;5.888;2023-05-29T15:26:52;21.60;55.10
37642;DHT22;23486;51.956;5.888;2023-05-29T15:29:17;21.40;54.10
37642;DHT22;23486;51.956;5.888;2023-05-29T15:31:43;21.20;54.50
37642;DHT22;23486;51.956;5.888;2023-05-29T15:34:17;21.10;55.20
37642;DHT22;23486;51.956;5.888;2023-05-29T15:36:43;21.10;55.30
37642;DHT22;23486;51.956;5.888;2023-05-29T15:39:12;21.00;55.30
37642;DHT22;23486;51.956;5.888;2023-05-29T15:41:37;20.90;54.50
37642;DHT22;23486;51.956;5.888;2023-05-29T15:44:03;20.80;53.30
37642;DHT22;23486;51.956;5.888;2023-05-29T15:46:29;20.70;52.30
37642;DHT22;23486;51.956;5.888;2023-05-29T15:48:55;20.60;53.20
37642;DHT22;23486;51.956;5.888;2023-05-29T15:51:21;20.40;53.50
37642;DHT22;23486;51.956;5.888;2023-05-29T15:53:46;20.30;54.00
37642;DHT22;23486;51.956;5.888;2023-05-29T15:56:12;20.20;55.10
37642;DHT22;23486;51.956;5.888;2023-05-29T15:58:38;20.20;55.70